sensor_id;sensor_type;location;lat;lon;timestamp;temperature;humidity
76787;DHT22;65739;51.482;5.702;2023-02-24T00:00:15;2.70;99.90
76787;DHT22;65739;51.482;5.702;2023-02-24T00:03:03;2.60;99.90
76787;DHT22;65739;51.482;5.702;2023-02-24T00:05:38;2.60;99.90
76787;DHT22;65739;51.482;5.702;2023-02-24T00:08:50;2.50;99.90
76787;DHT22;65739;51.482;5.702;2023-02-24T00:14:17;2.40;99.90
76787;DHT22;65739;51.482;5.702;2023-02-24T00:16:46;2.40;99.90
76787;DHT22;65739;51.482;5.702;2023-02-24T00:19:17;2.40;99.90
76787;DHT22;65739;51.482;5.702;2023-02-24T00:21:44;2.40;99.90
76787;DHT22;65739;51.482;5.702;2023-02-24T00:24:10;2.30;99.90
76787;DHT22;65739;51.482;5.702;2023-02-24T00:26:40;2.40;99.90
76787;DHT22;65739;51.482;5.702;2023-02-24T00:29:12;2.30;99.90
76787;DHT22;65739;51.482;5.702;2023-02-24T00:31:41;2.30;99.90
76787;DHT22;65739;51.482;5.702;2023-02-24T00:34:08;2.20;99.90
76787;DHT22;65739;51.482;5.702;2023-02-24T00:36:40;2.30;99.90
76787;DHT22;65739;51.482;5.702;2023-02-24T00:39:07;2.30;99.90
76787;DHT22;65739;51.482;5.702;2023-02-24T00:41:40;2.30;99.90
76787;DHT22;65739;51.482;5.702;2023-02-24T00:44:12;2.40;99.90
76787;DHT22;65739;51.482;5.702;2023-02-24T00:46:46;2.50;99.90
76787;DHT22;65739;51.482;5.702;2023-02-24T00:49:20;2.50;99.90
76787;DHT22;65739;51.482;5.702;2023-02-24T00:51:49;2.60;99.90
76787;DHT22;65739;51.482;5.702;2023-02-24T00:54:19;2.70;99.90
76787;DHT22;65739;51.482;5.702;2023-02-24T00:56:48;2.70;99.90
76787;DHT22;65739;51.482;5.702;2023-02-24T00:59:18;2.80;99.90
76787;DHT22;65739;51.482;5.702;2023-02-24T01:01:46;2.90;99.90
76787;DHT22;65739;51.482;5.702;2023-02-24T01:04:35;2.90;99.90
76787;DHT22;65739;51.482;5.702;2023-02-24T01:07:02;2.90;99.90
76787;DHT22;65739;51.482;5.702;2023-02-24T01:09:38;3.00;99.90
76787;DHT22;65739;51.482;5.702;2023-02-24T01:12:07;3.00;99.90
76787;DHT22;65739;51.482;5.702;2023-02-24T01:14:55;3.10;99.90
76787;DHT22;65739;51.482;5.702;2023-02-24T01:17:21;3.20;99.90
76787;DHT22;65739;51.482;5.702;2023-02-24T01:20:00;3.30;99.90
76787;DHT22;65739;51.482;5.702;2023-02-24T01:23:03;3.30;99.90
76787;DHT22;65739;51.482;5.702;2023-02-24T01:25:31;3.40;99.90
76787;DHT22;65739;51.482;5.702;2023-02-24T01:28:00;3.40;99.90
76787;DHT22;65739;51.482;5.702;2023-02-24T01:30:26;3.50;99.90
76787;DHT22;65739;51.482;5.702;2023-02-24T01:32:58;3.50;99.90
76787;DHT22;65739;51.482;5.702;2023-02-24T01:35:27;3.50;99.90
76787;DHT22;65739;51.482;5.702;2023-02-24T01:38:07;3.60;99.90
76787;DHT22;65739;51.482;5.702;2023-02-24T01:40:36;3.60;99.90
76787;DHT22;65739;51.482;5.702;2023-02-24T01:43:04;3.60;99.90
76787;DHT22;65739;51.482;5.702;2023-02-24T01:45:36;3.70;99.90
76787;DHT22;65739;51.482;5.702;2023-02-24T01:48:07;3.70;99.90
76787;DHT22;65739;51.482;5.702;2023-02-24T01:50:38;3.80;99.90
76787;DHT22;65739;51.482;5.702;2023-02-24T01:53:05;3.70;99.90
76787;DHT22;65739;51.482;5.702;2023-02-24T01:55:44;3.70;99.90
76787;DHT22;65739;51.482;5.702;2023-02-24T01:58:26;3.70;99.90
76787;DHT22;65739;51.482;5.702;2023-02-24T02:00:55;3.70;99.90
76787;DHT22;65739;51.482;5.702;2023-02-24T02:03:33;3.70;99.90
76787;DHT22;65739;51.482;5.702;2023-02-24T02:06:08;3.70;99.90
76787;DHT22;65739;51.482;5.702;2023-02-24T02:08:38;3.70;99.90
76787;DHT22;65739;51.482;5.702;2023-02-24T02:11:08;3.70;99.90
76787;DHT22;65739;51.482;5.702;2023-02-24T02:13:41;3.70;99.90
76787;DHT22;65739;51.482;5.702;2023-02-24T02:22:32;3.80;99.90
76787;DHT22;65739;51.482;5.702;2023-02-24T02:25:15;3.80;99.90
76787;DHT22;65739;51.482;5.702;2023-02-24T02:31:25;3.70;99.90
76787;DHT22;65739;51.482;5.702;2023-02-24T02:40:39;3.70;99.90
76787;DHT22;65739;51.482;5.702;2023-02-24T02:43:23;3.70;99.90
76787;DHT22;65739;51.482;5.702;2023-02-24T02:45:59;3.70;99.90
76787;DHT22;65739;51.482;5.702;2023-02-24T02:48:56;3.80;99.90
76787;DHT22;65739;51.482;5.702;2023-02-24T02:51:51;3.80;99.90
76787;DHT22;65739;51.482;5.702;2023-02-24T02:57:25;3.80;99.90
76787;DHT22;65739;51.482;5.702;2023-02-24T03:00:07;3.80;99.90
76787;DHT22;65739;51.482;5.702;2023-02-24T03:02:42;3.90;99.90
76787;DHT22;65739;51.482;5.702;2023-02-24T03:05:13;3.80;99.90
76787;DHT22;65739;51.482;5.702;2023-02-24T03:07:52;3.80;99.90
76787;DHT22;65739;51.482;5.702;2023-02-24T03:10:27;3.90;99.90
76787;DHT22;65739;51.482;5.702;2023-02-24T03:13:11;3.80;99.90
76787;DHT22;65739;51.482;5.702;2023-02-24T03:15:39;3.90;99.90
76787;DHT22;65739;51.482;5.702;2023-02-24T03:18:14;3.90;99.90
76787;DHT22;65739;51.482;5.702;2023-02-24T03:21:05;3.80;99.90
76787;DHT22;65739;51.482;5.702;2023-02-24T03:23:36;3.80;99.90
76787;DHT22;65739;51.482;5.702;2023-02-24T03:26:15;3.80;99.90
76787;DHT22;65739;51.482;5.702;2023-02-24T03:29:03;3.80;99.90
76787;DHT22;65739;51.482;5.702;2023-02-24T03:31:44;3.80;99.90
76787;DHT22;65739;51.482;5.702;2023-02-24T03:37:37;3.90;99.90
76787;DHT22;65739;51.482;5.702;2023-02-24T03:40:09;3.80;99.90
76787;DHT22;65739;51.482;5.702;2023-02-24T03:42:39;3.80;99.90
76787;DHT22;65739;51.482;5.702;2023-02-24T03:45:06;3.80;99.90
76787;DHT22;65739;51.482;5.702;2023-02-24T03:47:36;3.80;99.90
76787;DHT22;65739;51.482;5.702;2023-02-24T03:50:19;3.80;99.90
76787;DHT22;65739;51.482;5.702;2023-02-24T03:55:56;3.90;99.90
76787;DHT22;65739;51.482;5.702;2023-02-24T03:58:46;3.90;99.90
76787;DHT22;65739;51.482;5.702;2023-02-24T04:04:29;3.90;99.90
76787;DHT22;65739;51.482;5.702;2023-02-24T04:10:46;3.80;99.90
76787;DHT22;65739;51.482;5.702;2023-02-24T04:13:07;3.90;99.90
76787;DHT22;65739;51.482;5.702;2023-02-24T04:15:50;3.90;99.90
76787;DHT22;65739;51.482;5.702;2023-02-24T04:18:18;3.80;99.90
76787;DHT22;65739;51.482;5.702;2023-02-24T04:20:51;3.80;99.90
76787;DHT22;65739;51.482;5.702;2023-02-24T04:23:24;3.70;99.90
76787;DHT22;65739;51.482;5.702;2023-02-24T04:25:55;3.60;99.90
76787;DHT22;65739;51.482;5.702;2023-02-24T04:28:25;3.50;99.90
76787;DHT22;65739;51.482;5.702;2023-02-24T04:30:59;3.40;99.90
76787;DHT22;65739;51.482;5.702;2023-02-24T04:33:36;3.30;99.90
76787;DHT22;65739;51.482;5.702;2023-02-24T04:36:11;3.30;99.90
76787;DHT22;65739;51.482;5.702;2023-02-24T04:38:41;3.30;99.90
76787;DHT22;65739;51.482;5.702;2023-02-24T04:41:07;3.30;99.90
76787;DHT22;65739;51.482;5.702;2023-02-24T04:43:36;3.30;99.90
76787;DHT22;65739;51.482;5.702;2023-02-24T04:46:03;3.30;99.90
76787;DHT22;65739;51.482;5.702;2023-02-24T04:48:33;3.30;99.90
76787;DHT22;65739;51.482;5.702;2023-02-24T04:51:06;3.40;99.90
76787;DHT22;65739;51.482;5.702;2023-02-24T04:53:35;3.30;99.90
76787;DHT22;65739;51.482;5.702;2023-02-24T04:56:03;3.40;99.90
76787;DHT22;65739;51.482;5.702;2023-02-24T04:58:39;3.30;99.90
76787;DHT22;65739;51.482;5.702;2023-02-24T05:01:15;3.40;99.90
76787;DHT22;65739;51.482;5.702;2023-02-24T05:03:50;3.40;99.90
76787;DHT22;65739;51.482;5.702;2023-02-24T05:06:16;3.30;99.90
76787;DHT22;65739;51.482;5.702;2023-02-24T05:08:45;3.40;99.90
76787;DHT22;65739;51.482;5.702;2023-02-24T05:11:22;3.40;99.90
76787;DHT22;65739;51.482;5.702;2023-02-24T05:13:51;3.50;99.90
76787;DHT22;65739;51.482;5.702;2023-02-24T05:16:20;3.50;99.90
76787;DHT22;65739;51.482;5.702;2023-02-24T05:18:55;3.60;99.90
76787;DHT22;65739;51.482;5.702;2023-02-24T05:21:43;3.60;99.90
76787;DHT22;65739;51.482;5.702;2023-02-24T05:24:09;3.60;99.90
76787;DHT22;65739;51.482;5.702;2023-02-24T05:26:37;3.70;99.90
76787;DHT22;65739;51.482;5.702;2023-02-24T05:29:07;3.70;99.90
76787;DHT22;65739;51.482;5.702;2023-02-24T05:31:40;3.70;99.90
76787;DHT22;65739;51.482;5.702;2023-02-24T05:34:13;3.70;99.90
76787;DHT22;65739;51.482;5.702;2023-02-24T05:36:54;3.70;99.90
76787;DHT22;65739;51.482;5.702;2023-02-24T05:39:23;3.80;99.90
76787;DHT22;65739;51.482;5.702;2023-02-24T05:41:54;3.80;99.90
76787;DHT22;65739;51.482;5.702;2023-02-24T05:45:06;3.80;99.90
76787;DHT22;65739;51.482;5.702;2023-02-24T05:47:32;3.80;99.90
76787;DHT22;65739;51.482;5.702;2023-02-24T05:53:14;3.80;99.90
76787;DHT22;65739;51.482;5.702;2023-02-24T05:55:45;3.80;99.90
76787;DHT22;65739;51.482;5.702;2023-02-24T05:58:46;3.80;99.90
76787;DHT22;65739;51.482;5.702;2023-02-24T06:01:27;3.80;99.90
76787;DHT22;65739;51.482;5.702;2023-02-24T06:03:58;3.70;99.90
76787;DHT22;65739;51.482;5.702;2023-02-24T06:06:33;3.70;99.90
76787;DHT22;65739;51.482;5.702;2023-02-24T06:09:05;3.70;99.90
76787;DHT22;65739;51.482;5.702;2023-02-24T06:11:55;3.60;99.90
76787;DHT22;65739;51.482;5.702;2023-02-24T06:14:21;3.60;99.90
76787;DHT22;65739;51.482;5.702;2023-02-24T06:16:50;3.60;99.90
76787;DHT22;65739;51.482;5.702;2023-02-24T06:19:25;3.60;99.90
76787;DHT22;65739;51.482;5.702;2023-02-24T06:21:57;3.50;99.90
76787;DHT22;65739;51.482;5.702;2023-02-24T06:24:28;3.50;99.90
76787;DHT22;65739;51.482;5.702;2023-02-24T06:26:55;3.50;99.90
76787;DHT22;65739;51.482;5.702;2023-02-24T06:29:40;3.60;99.90
76787;DHT22;65739;51.482;5.702;2023-02-24T06:32:09;3.60;99.90
76787;DHT22;65739;51.482;5.702;2023-02-24T06:34:38;3.60;99.90
76787;DHT22;65739;51.482;5.702;2023-02-24T06:37:09;3.70;99.90
76787;DHT22;65739;51.482;5.702;2023-02-24T06:39:42;3.60;99.90
76787;DHT22;65739;51.482;5.702;2023-02-24T06:42:30;3.70;99.90
76787;DHT22;65739;51.482;5.702;2023-02-24T06:44:59;3.70;99.90
76787;DHT22;65739;51.482;5.702;2023-02-24T06:47:28;3.60;99.90
76787;DHT22;65739;51.482;5.702;2023-02-24T06:49:57;3.60;99.90
76787;DHT22;65739;51.482;5.702;2023-02-24T06:52:25;3.60;99.90
76787;DHT22;65739;51.482;5.702;2023-02-24T06:54:51;3.60;99.90
76787;DHT22;65739;51.482;5.702;2023-02-24T06:57:24;3.60;99.90
76787;DHT22;65739;51.482;5.702;2023-02-24T06:59:50;3.60;99.90
76787;DHT22;65739;51.482;5.702;2023-02-24T07:02:20;3.60;99.90
76787;DHT22;65739;51.482;5.702;2023-02-24T07:04:54;3.60;99.90
76787;DHT22;65739;51.482;5.702;2023-02-24T07:07:26;3.60;99.90
76787;DHT22;65739;51.482;5.702;2023-02-24T07:09:56;3.60;99.90
76787;DHT22;65739;51.482;5.702;2023-02-24T07:12:24;3.60;99.90
76787;DHT22;65739;51.482;5.702;2023-02-24T07:17:33;3.60;99.90
76787;DHT22;65739;51.482;5.702;2023-02-24T07:20:07;3.60;99.90
76787;DHT22;65739;51.482;5.702;2023-02-24T07:22:37;3.60;99.90
76787;DHT22;65739;51.482;5.702;2023-02-24T07:25:25;3.70;99.90
76787;DHT22;65739;51.482;5.702;2023-02-24T07:28:00;3.70;99.90
76787;DHT22;65739;51.482;5.702;2023-02-24T07:30:29;3.70;99.90
76787;DHT22;65739;51.482;5.702;2023-02-24T07:33:01;3.80;99.90
76787;DHT22;65739;51.482;5.702;2023-02-24T07:35:29;3.80;99.90
76787;DHT22;65739;51.482;5.702;2023-02-24T07:38:01;3.90;99.90
76787;DHT22;65739;51.482;5.702;2023-02-24T07:40:44;3.90;99.90
76787;DHT22;65739;51.482;5.702;2023-02-24T07:43:15;3.90;99.90
76787;DHT22;65739;51.482;5.702;2023-02-24T07:45:46;4.00;99.90
76787;DHT22;65739;51.482;5.702;2023-02-24T07:48:20;4.00;99.90
76787;DHT22;65739;51.482;5.702;2023-02-24T07:50:46;4.00;99.90
76787;DHT22;65739;51.482;5.702;2023-02-24T07:53:15;4.10;99.90
76787;DHT22;65739;51.482;5.702;2023-02-24T07:56:07;4.10;99.90
76787;DHT22;65739;51.482;5.702;2023-02-24T07:59:06;4.20;99.90
76787;DHT22;65739;51.482;5.702;2023-02-24T08:01:40;4.20;99.90
76787;DHT22;65739;51.482;5.702;2023-02-24T08:04:17;4.20;99.90
76787;DHT22;65739;51.482;5.702;2023-02-24T08:06:56;4.30;99.90
76787;DHT22;65739;51.482;5.702;2023-02-24T08:09:29;4.30;99.90
76787;DHT22;65739;51.482;5.702;2023-02-24T08:12:30;4.30;99.90
76787;DHT22;65739;51.482;5.702;2023-02-24T08:14:58;4.40;99.90
76787;DHT22;65739;51.482;5.702;2023-02-24T08:17:28;4.40;99.90
76787;DHT22;65739;51.482;5.702;2023-02-24T08:19:57;4.50;99.90
76787;DHT22;65739;51.482;5.702;2023-02-24T08:22:42;4.60;99.90
76787;DHT22;65739;51.482;5.702;2023-02-24T08:25:15;4.60;99.90
76787;DHT22;65739;51.482;5.702;2023-02-24T08:27:52;4.60;99.90
76787;DHT22;65739;51.482;5.702;2023-02-24T08:30:28;4.60;99.90
76787;DHT22;65739;51.482;5.702;2023-02-24T08:33:05;4.60;99.90
76787;DHT22;65739;51.482;5.702;2023-02-24T08:35:41;4.70;99.90
76787;DHT22;65739;51.482;5.702;2023-02-24T08:38:17;4.70;99.90
76787;DHT22;65739;51.482;5.702;2023-02-24T08:41:03;4.70;99.90
76787;DHT22;65739;51.482;5.702;2023-02-24T08:43:37;4.80;99.90
76787;DHT22;65739;51.482;5.702;2023-02-24T08:46:18;4.90;99.90
76787;DHT22;65739;51.482;5.702;2023-02-24T08:49:02;4.90;99.90
76787;DHT22;65739;51.482;5.702;2023-02-24T08:54:40;5.00;99.90
76787;DHT22;65739;51.482;5.702;2023-02-24T08:57:19;5.00;99.90
76787;DHT22;65739;51.482;5.702;2023-02-24T08:59:54;5.10;99.90
76787;DHT22;65739;51.482;5.702;2023-02-24T09:02:24;5.20;99.90
76787;DHT22;65739;51.482;5.702;2023-02-24T09:05:11;5.20;99.90
76787;DHT22;65739;51.482;5.702;2023-02-24T09:07:44;5.30;99.90
76787;DHT22;65739;51.482;5.702;2023-02-24T09:10:19;5.50;99.90
76787;DHT22;65739;51.482;5.702;2023-02-24T09:12:48;5.60;99.90
76787;DHT22;65739;51.482;5.702;2023-02-24T09:15:18;5.60;99.90
76787;DHT22;65739;51.482;5.702;2023-02-24T09:17:56;5.70;99.90
76787;DHT22;65739;51.482;5.702;2023-02-24T09:20:34;5.70;99.90
76787;DHT22;65739;51.482;5.702;2023-02-24T09:23:29;5.70;99.90
76787;DHT22;65739;51.482;5.702;2023-02-24T09:29:00;5.70;99.90
76787;DHT22;65739;51.482;5.702;2023-02-24T09:31:48;5.70;99.90
76787;DHT22;65739;51.482;5.702;2023-02-24T09:34:22;5.70;99.90
76787;DHT22;65739;51.482;5.702;2023-02-24T09:37:00;5.70;99.90
76787;DHT22;65739;51.482;5.702;2023-02-24T09:42:42;5.60;99.90
76787;DHT22;65739;51.482;5.702;2023-02-24T09:45:18;5.70;99.90
76787;DHT22;65739;51.482;5.702;2023-02-24T09:51:26;5.80;99.90
76787;DHT22;65739;51.482;5.702;2023-02-24T09:53:56;5.70;99.90
76787;DHT22;65739;51.482;5.702;2023-02-24T09:56:35;5.80;99.90
76787;DHT22;65739;51.482;5.702;2023-02-24T09:59:24;5.90;99.90
76787;DHT22;65739;51.482;5.702;2023-02-24T10:02:40;5.80;99.90
76787;DHT22;65739;51.482;5.702;2023-02-24T10:07:49;5.60;99.90
76787;DHT22;65739;51.482;5.702;2023-02-24T10:10:27;5.60;99.90
76787;DHT22;65739;51.482;5.702;2023-02-24T10:16:21;5.60;99.90
76787;DHT22;65739;51.482;5.702;2023-02-24T10:19:21;5.70;99.90
76787;DHT22;65739;51.482;5.702;2023-02-24T10:25:09;5.70;99.90
76787;DHT22;65739;51.482;5.702;2023-02-24T10:27:55;5.70;99.90
76787;DHT22;65739;51.482;5.702;2023-02-24T10:33:58;5.80;99.90
76787;DHT22;65739;51.482;5.702;2023-02-24T10:36:51;5.90;99.90
76787;DHT22;65739;51.482;5.702;2023-02-24T10:39:22;5.80;99.90
76787;DHT22;65739;51.482;5.702;2023-02-24T10:48:28;5.90;99.90
76787;DHT22;65739;51.482;5.702;2023-02-24T10:51:16;5.80;99.90
76787;DHT22;65739;51.482;5.702;2023-02-24T10:57:47;5.90;99.90
76787;DHT22;65739;51.482;5.702;2023-02-24T11:00:20;6.00;99.90
76787;DHT22;65739;51.482;5.702;2023-02-24T11:03:08;6.20;99.90
76787;DHT22;65739;51.482;5.702;2023-02-24T11:05:50;6.20;99.90
76787;DHT22;65739;51.482;5.702;2023-02-24T11:08:56;6.20;99.90
76787;DHT22;65739;51.482;5.702;2023-02-24T11:11:51;6.40;99.90
76787;DHT22;65739;51.482;5.702;2023-02-24T11:15:25;6.30;99.90
76787;DHT22;65739;51.482;5.702;2023-02-24T11:30:48;6.30;99.90
76787;DHT22;65739;51.482;5.702;2023-02-24T11:33:33;6.30;99.90
76787;DHT22;65739;51.482;5.702;2023-02-24T11:36:20;6.30;99.90
76787;DHT22;65739;51.482;5.702;2023-02-24T11:42:07;6.20;99.90
76787;DHT22;65739;51.482;5.702;2023-02-24T11:47:35;6.10;99.90
76787;DHT22;65739;51.482;5.702;2023-02-24T11:50:27;6.10;99.90
76787;DHT22;65739;51.482;5.702;2023-02-24T11:53:08;6.00;99.90
76787;DHT22;65739;51.482;5.702;2023-02-24T11:55:45;5.90;99.90
76787;DHT22;65739;51.482;5.702;2023-02-24T11:58:30;5.80;99.90
76787;DHT22;65739;51.482;5.702;2023-02-24T12:01:18;5.80;99.90
76787;DHT22;65739;51.482;5.702;2023-02-24T12:03:55;5.80;99.90
76787;DHT22;65739;51.482;5.702;2023-02-24T12:06:29;5.80;99.90
76787;DHT22;65739;51.482;5.702;2023-02-24T12:09:12;5.80;99.90
76787;DHT22;65739;51.482;5.702;2023-02-24T12:12:09;5.70;99.90
76787;DHT22;65739;51.482;5.702;2023-02-24T12:17:40;5.80;99.90
76787;DHT22;65739;51.482;5.702;2023-02-24T12:31:41;6.00;99.90
76787;DHT22;65739;51.482;5.702;2023-02-24T12:34:20;6.00;99.90
76787;DHT22;65739;51.482;5.702;2023-02-24T12:45:50;5.90;99.90
76787;DHT22;65739;51.482;5.702;2023-02-24T12:49:02;5.90;99.90
76787;DHT22;65739;51.482;5.702;2023-02-24T12:59:37;6.00;99.90
76787;DHT22;65739;51.482;5.702;2023-02-24T13:02:39;5.90;99.90
76787;DHT22;65739;51.482;5.702;2023-02-24T13:05:43;6.00;99.90
76787;DHT22;65739;51.482;5.702;2023-02-24T13:08:57;6.00;99.90
76787;DHT22;65739;51.482;5.702;2023-02-24T13:11:36;6.00;99.90
76787;DHT22;65739;51.482;5.702;2023-02-24T13:16:42;5.90;99.90
76787;DHT22;65739;51.482;5.702;2023-02-24T13:19:28;6.00;99.90
76787;DHT22;65739;51.482;5.702;2023-02-24T13:25:16;6.00;99.90
76787;DHT22;65739;51.482;5.702;2023-02-24T13:27:55;6.00;99.90
76787;DHT22;65739;51.482;5.702;2023-02-24T13:30:28;6.00;99.90
76787;DHT22;65739;51.482;5.702;2023-02-24T13:33:22;5.90;99.90
76787;DHT22;65739;51.482;5.702;2023-02-24T13:36:11;6.00;99.90
76787;DHT22;65739;51.482;5.702;2023-02-24T13:38:45;5.90;99.90
76787;DHT22;65739;51.482;5.702;2023-02-24T13:41:46;5.90;99.90
76787;DHT22;65739;51.482;5.702;2023-02-24T13:44:31;5.90;99.90
76787;DHT22;65739;51.482;5.702;2023-02-24T13:47:32;5.90;99.90
76787;DHT22;65739;51.482;5.702;2023-02-24T13:50:18;5.90;99.90
76787;DHT22;65739;51.482;5.702;2023-02-24T14:01:30;5.80;99.90
76787;DHT22;65739;51.482;5.702;2023-02-24T14:04:14;5.80;99.90
76787;DHT22;65739;51.482;5.702;2023-02-24T14:07:02;5.80;99.90
76787;DHT22;65739;51.482;5.702;2023-02-24T14:12:45;5.80;99.90
76787;DHT22;65739;51.482;5.702;2023-02-24T14:18:26;6.00;99.90
76787;DHT22;65739;51.482;5.702;2023-02-24T14:20:58;6.30;99.90
76787;DHT22;65739;51.482;5.702;2023-02-24T14:23:34;6.30;99.90
76787;DHT22;65739;51.482;5.702;2023-02-24T14:26:12;6.20;99.90
76787;DHT22;65739;51.482;5.702;2023-02-24T14:28:56;6.20;99.90
76787;DHT22;65739;51.482;5.702;2023-02-24T14:31:28;6.30;99.90
76787;DHT22;65739;51.482;5.702;2023-02-24T14:34:00;6.40;99.90
76787;DHT22;65739;51.482;5.702;2023-02-24T14:36:41;6.50;99.90
76787;DHT22;65739;51.482;5.702;2023-02-24T14:39:12;6.50;99.90
76787;DHT22;65739;51.482;5.702;2023-02-24T14:41:45;6.60;99.90
76787;DHT22;65739;51.482;5.702;2023-02-24T14:44:28;6.70;99.90
76787;DHT22;65739;51.482;5.702;2023-02-24T14:47:08;6.60;99.90
76787;DHT22;65739;51.482;5.702;2023-02-24T14:55:41;6.40;99.90
76787;DHT22;65739;51.482;5.702;2023-02-24T14:58:25;6.40;99.90
76787;DHT22;65739;51.482;5.702;2023-02-24T15:01:26;6.70;99.90
76787;DHT22;65739;51.482;5.702;2023-02-24T15:04:30;7.00;99.90
76787;DHT22;65739;51.482;5.702;2023-02-24T15:07:00;7.20;99.90
76787;DHT22;65739;51.482;5.702;2023-02-24T15:09:39;7.50;99.90
76787;DHT22;65739;51.482;5.702;2023-02-24T15:15:07;7.50;99.90
76787;DHT22;65739;51.482;5.702;2023-02-24T15:17:39;7.30;99.90
76787;DHT22;65739;51.482;5.702;2023-02-24T15:20:57;7.20;99.90
76787;DHT22;65739;51.482;5.702;2023-02-24T15:23:37;7.00;99.90
76787;DHT22;65739;51.482;5.702;2023-02-24T15:26:06;6.90;99.90
76787;DHT22;65739;51.482;5.702;2023-02-24T15:28:38;6.80;99.90
76787;DHT22;65739;51.482;5.702;2023-02-24T15:31:17;6.50;99.90
76787;DHT22;65739;51.482;5.702;2023-02-24T15:34:01;6.40;99.90
76787;DHT22;65739;51.482;5.702;2023-02-24T15:36:46;6.50;99.90
76787;DHT22;65739;51.482;5.702;2023-02-24T15:39:29;6.50;99.90
76787;DHT22;65739;51.482;5.702;2023-02-24T15:45:38;6.40;99.90
76787;DHT22;65739;51.482;5.702;2023-02-24T15:48:01;6.50;99.90
76787;DHT22;65739;51.482;5.702;2023-02-24T15:50:29;6.50;99.90
76787;DHT22;65739;51.482;5.702;2023-02-24T15:53:02;6.50;99.90
76787;DHT22;65739;51.482;5.702;2023-02-24T15:55:36;6.50;99.90
76787;DHT22;65739;51.482;5.702;2023-02-24T15:58:27;6.50;99.90
76787;DHT22;65739;51.482;5.702;2023-02-24T16:01:04;6.60;99.90
76787;DHT22;65739;51.482;5.702;2023-02-24T16:03:33;6.60;99.90
76787;DHT22;65739;51.482;5.702;2023-02-24T16:06:01;6.50;99.90
76787;DHT22;65739;51.482;5.702;2023-02-24T16:08:49;6.60;99.90
76787;DHT22;65739;51.482;5.702;2023-02-24T16:11:26;6.50;99.90
76787;DHT22;65739;51.482;5.702;2023-02-24T16:13:56;6.40;99.90
76787;DHT22;65739;51.482;5.702;2023-02-24T16:16:26;6.30;99.90
76787;DHT22;65739;51.482;5.702;2023-02-24T16:19:06;6.30;99.90
76787;DHT22;65739;51.482;5.702;2023-02-24T16:21:35;6.30;99.90
76787;DHT22;65739;51.482;5.702;2023-02-24T16:24:06;6.20;99.90
76787;DHT22;65739;51.482;5.702;2023-02-24T16:26:37;6.20;99.90
76787;DHT22;65739;51.482;5.702;2023-02-24T16:29:15;6.00;99.90
76787;DHT22;65739;51.482;5.702;2023-02-24T16:31:45;6.00;99.90
76787;DHT22;65739;51.482;5.702;2023-02-24T16:34:14;5.90;99.90
76787;DHT22;65739;51.482;5.702;2023-02-24T16:36:43;5.90;99.90
76787;DHT22;65739;51.482;5.702;2023-02-24T16:39:12;5.80;99.90
76787;DHT22;65739;51.482;5.702;2023-02-24T16:41:44;5.80;99.90
76787;DHT22;65739;51.482;5.702;2023-02-24T16:44:16;5.80;99.90
76787;DHT22;65739;51.482;5.702;2023-02-24T16:46:45;5.80;99.90
76787;DHT22;65739;51.482;5.702;2023-02-24T16:49:22;5.70;99.90
76787;DHT22;65739;51.482;5.702;2023-02-24T16:51:58;5.70;99.90
76787;DHT22;65739;51.482;5.702;2023-02-24T16:54:27;5.70;99.90
76787;DHT22;65739;51.482;5.702;2023-02-24T16:56:59;5.70;99.90
76787;DHT22;65739;51.482;5.702;2023-02-24T16:59:26;5.70;99.90
76787;DHT22;65739;51.482;5.702;2023-02-24T17:02:03;5.80;99.90
76787;DHT22;65739;51.482;5.702;2023-02-24T17:04:37;5.90;99.90
76787;DHT22;65739;51.482;5.702;2023-02-24T17:07:03;5.90;99.90
76787;DHT22;65739;51.482;5.702;2023-02-24T17:09:29;5.90;99.90
76787;DHT22;65739;51.482;5.702;2023-02-24T17:12:03;5.90;99.90
76787;DHT22;65739;51.482;5.702;2023-02-24T17:14:29;5.90;99.90
76787;DHT22;65739;51.482;5.702;2023-02-24T17:17:07;5.90;99.90
76787;DHT22;65739;51.482;5.702;2023-02-24T17:19:33;5.90;99.90
76787;DHT22;65739;51.482;5.702;2023-02-24T17:22:01;5.90;99.90
76787;DHT22;65739;51.482;5.702;2023-02-24T17:24:30;5.90;99.90
76787;DHT22;65739;51.482;5.702;2023-02-24T17:26:59;5.90;99.90
76787;DHT22;65739;51.482;5.702;2023-02-24T17:29:26;5.90;99.90
76787;DHT22;65739;51.482;5.702;2023-02-24T17:31:58;5.90;99.90
76787;DHT22;65739;51.482;5.702;2023-02-24T17:34:27;5.90;99.90
76787;DHT22;65739;51.482;5.702;2023-02-24T17:36:53;5.90;99.90
76787;DHT22;65739;51.482;5.702;2023-02-24T17:39:24;5.90;99.90
76787;DHT22;65739;51.482;5.702;2023-02-24T17:41:50;5.90;99.90
76787;DHT22;65739;51.482;5.702;2023-02-24T17:44:19;5.90;99.90
76787;DHT22;65739;51.482;5.702;2023-02-24T17:46:47;5.80;99.90
76787;DHT22;65739;51.482;5.702;2023-02-24T17:49:23;5.70;99.90
76787;DHT22;65739;51.482;5.702;2023-02-24T17:52:10;5.60;99.90
76787;DHT22;65739;51.482;5.702;2023-02-24T17:54:43;5.50;99.90
76787;DHT22;65739;51.482;5.702;2023-02-24T17:57:09;5.40;99.90
76787;DHT22;65739;51.482;5.702;2023-02-24T17:59:37;5.40;99.90
76787;DHT22;65739;51.482;5.702;2023-02-24T18:02:08;5.30;99.90
76787;DHT22;65739;51.482;5.702;2023-02-24T18:04:40;5.30;99.90
76787;DHT22;65739;51.482;5.702;2023-02-24T18:07:10;5.40;99.90
76787;DHT22;65739;51.482;5.702;2023-02-24T18:09:42;5.40;99.90
76787;DHT22;65739;51.482;5.702;2023-02-24T18:12:08;5.30;99.90
76787;DHT22;65739;51.482;5.702;2023-02-24T18:14:34;5.30;99.90
76787;DHT22;65739;51.482;5.702;2023-02-24T18:17:02;5.20;99.90
76787;DHT22;65739;51.482;5.702;2023-02-24T18:19:34;5.10;99.90
76787;DHT22;65739;51.482;5.702;2023-02-24T18:22:00;5.00;99.90
76787;DHT22;65739;51.482;5.702;2023-02-24T18:24:29;5.00;99.90
76787;DHT22;65739;51.482;5.702;2023-02-24T18:26:58;5.00;99.90
76787;DHT22;65739;51.482;5.702;2023-02-24T18:29:46;5.00;99.90
76787;DHT22;65739;51.482;5.702;2023-02-24T18:32:26;4.90;99.90
76787;DHT22;65739;51.482;5.702;2023-02-24T18:34:58;4.90;99.90
76787;DHT22;65739;51.482;5.702;2023-02-24T18:37:33;4.90;99.90
76787;DHT22;65739;51.482;5.702;2023-02-24T18:40:01;4.90;99.90
76787;DHT22;65739;51.482;5.702;2023-02-24T18:42:31;4.90;99.90
76787;DHT22;65739;51.482;5.702;2023-02-24T18:44:59;4.90;99.90
76787;DHT22;65739;51.482;5.702;2023-02-24T18:47:25;4.80;99.90
76787;DHT22;65739;51.482;5.702;2023-02-24T18:49:53;4.70;99.90
76787;DHT22;65739;51.482;5.702;2023-02-24T18:52:22;4.70;99.90
76787;DHT22;65739;51.482;5.702;2023-02-24T18:54:48;4.80;99.90
76787;DHT22;65739;51.482;5.702;2023-02-24T18:57:20;4.90;99.90
76787;DHT22;65739;51.482;5.702;2023-02-24T18:59:49;4.90;99.90
76787;DHT22;65739;51.482;5.702;2023-02-24T19:02:15;4.90;99.90
76787;DHT22;65739;51.482;5.702;2023-02-24T19:04:44;5.00;99.90
76787;DHT22;65739;51.482;5.702;2023-02-24T19:07:13;5.00;99.90
76787;DHT22;65739;51.482;5.702;2023-02-24T19:09:51;5.00;99.90
76787;DHT22;65739;51.482;5.702;2023-02-24T19:12:20;5.10;99.90
76787;DHT22;65739;51.482;5.702;2023-02-24T19:15:04;5.10;99.90
76787;DHT22;65739;51.482;5.702;2023-02-24T19:17:33;5.10;99.90
76787;DHT22;65739;51.482;5.702;2023-02-24T19:20:02;5.10;99.90